createdAt,value
2023-02-12T00:01:02.471Z,19.73
2023-02-12T00:02:34.791Z,20.70
2023-02-12T00:04:06.991Z,25.02
2023-02-12T00:05:39.974Z,20.20
2023-02-12T00:07:12.058Z,21.13
2023-02-12T00:08:44.387Z,19.88
2023-02-12T00:10:16.497Z,17.65
2023-02-12T00:11:48.670Z,19.50
2023-02-12T00:13:20.964Z,21.08
2023-02-12T00:14:53.004Z,21.05
2023-02-12T00:16:31.357Z,21.77
2023-02-12T00:18:03.536Z,19.10
2023-02-12T00:19:35.733Z,19.13
2023-02-12T00:21:11.613Z,17.10
2023-02-12T00:22:43.724Z,16.15
2023-02-12T00:24:15.882Z,18.05
2023-02-12T00:25:48.002Z,24.75
2023-02-12T00:27:20.056Z,25.45
2023-02-12T00:28:52.739Z,26.23
2023-02-12T00:30:24.909Z,28.52
2023-02-12T00:31:57.184Z,24.70
2023-02-12T00:33:29.281Z,29.30
2023-02-12T00:35:01.423Z,32.67
2023-02-12T00:36:33.763Z,29.45
2023-02-12T00:38:05.874Z,18.30
2023-02-12T00:39:38.435Z,18.77
2023-02-12T00:41:13.759Z,14.98
2023-02-12T00:42:45.911Z,18.48
2023-02-12T00:44:18.074Z,15.77
2023-02-12T00:45:50.316Z,14.20
2023-02-12T00:47:22.594Z,12.25
2023-02-12T00:48:54.792Z,11.20
2023-02-12T00:50:27.665Z,9.70
2023-02-12T00:52:02.256Z,11.93
2023-02-12T00:53:34.875Z,14.35
2023-02-12T00:55:07.021Z,12.00
2023-02-12T00:56:38.977Z,11.50
2023-02-12T00:58:11.157Z,13.55
2023-02-12T00:59:43.221Z,15.55
2023-02-12T01:01:15.259Z,16.17
2023-02-12T01:02:47.261Z,13.55
2023-02-12T01:04:19.531Z,13.75
2023-02-12T01:05:52.117Z,12.20
2023-02-12T01:07:25.329Z,12.33
2023-02-12T01:08:57.353Z,12.50
2023-02-12T01:10:29.474Z,11.50
2023-02-12T01:12:04.890Z,8.98
2023-02-12T01:13:36.896Z,9.73
2023-02-12T01:15:10.780Z,10.23
2023-02-12T01:16:42.922Z,10.38
2023-02-12T01:18:16.475Z,10.23
2023-02-12T01:21:23.169Z,13.60
2023-02-12T01:22:55.200Z,17.02
2023-02-12T01:24:27.198Z,17.30
2023-02-12T01:25:59.196Z,17.80
2023-02-12T01:27:31.243Z,19.35
2023-02-12T01:29:07.345Z,17.60
2023-02-12T01:30:39.374Z,16.13
2023-02-12T01:32:12.177Z,18.17
2023-02-12T01:33:44.558Z,24.65
2023-02-12T01:35:16.571Z,26.85
2023-02-12T01:36:48.606Z,31.00
2023-02-12T01:38:20.862Z,28.40
2023-02-12T01:39:53.025Z,28.83
2023-02-12T01:41:28.450Z,27.85
2023-02-12T01:43:03.897Z,27.65
2023-02-12T01:44:37.391Z,27.08
2023-02-12T01:47:44.557Z,27.70
2023-02-12T01:49:25.240Z,29.25
2023-02-12T01:50:58.608Z,29.70
2023-02-12T01:52:33.599Z,31.42
2023-02-12T01:54:08.515Z,27.90
2023-02-12T01:55:41.160Z,27.83
2023-02-12T01:57:14.667Z,25.90
2023-02-12T02:00:25.163Z,29.23
2023-02-12T02:01:57.286Z,29.33
2023-02-12T02:03:29.567Z,28.70
2023-02-12T02:05:04.624Z,36.90
2023-02-12T02:06:40.661Z,33.38
2023-02-12T02:08:13.111Z,22.33
2023-02-12T02:09:45.240Z,20.20
2023-02-12T02:11:35.729Z,18.98
2023-02-12T02:13:26.316Z,19.52
2023-02-12T02:15:00.353Z,17.67
2023-02-12T02:16:35.535Z,22.77
2023-02-12T02:18:09.409Z,27.75
2023-02-12T02:20:02.855Z,30.95
2023-02-12T02:21:51.725Z,31.00
2023-02-12T02:23:23.662Z,32.72
2023-02-12T02:25:32.789Z,43.50
2023-02-12T02:27:43.056Z,41.67
2023-02-12T02:29:21.854Z,45.35
2023-02-12T02:31:01.271Z,45.03
2023-02-12T02:32:58.070Z,44.03
2023-02-12T02:34:41.430Z,37.80
2023-02-12T02:36:26.121Z,35.67
2023-02-12T02:38:21.638Z,30.30
2023-02-12T02:40:00.422Z,32.60
2023-02-12T02:42:11.117Z,30.63
2023-02-12T02:43:51.445Z,28.85
2023-02-12T02:45:34.140Z,27.25
2023-02-12T02:47:09.310Z,27.08
2023-02-12T02:49:02.746Z,23.92
2023-02-12T02:50:36.917Z,21.45
2023-02-12T02:52:13.098Z,16.45
2023-02-12T02:54:08.154Z,17.38
2023-02-12T02:55:44.787Z,16.40
2023-02-12T02:57:36.276Z,16.42
2023-02-12T02:59:13.671Z,16.30
2023-02-12T03:00:52.367Z,16.17
2023-02-12T03:02:31.852Z,15.80
2023-02-12T03:04:09.505Z,15.50
2023-02-12T03:05:47.934Z,12.48
2023-02-12T03:07:33.297Z,9.98
2023-02-12T03:09:12.972Z,8.48
2023-02-12T03:10:47.721Z,8.35
2023-02-12T03:12:26.348Z,8.73
2023-02-12T03:14:13.521Z,7.40
2023-02-12T03:15:50.179Z,7.30
2023-02-12T03:17:28.503Z,7.97
2023-02-12T03:19:25.936Z,8.35
2023-02-12T03:21:06.058Z,7.78
2023-02-12T03:22:41.328Z,8.50
2023-02-12T03:24:33.574Z,7.78
2023-02-12T03:26:09.288Z,7.07
2023-02-12T03:27:57.132Z,9.65
2023-02-12T03:29:29.331Z,9.80
2023-02-12T03:31:16.793Z,14.07
2023-02-12T03:33:07.451Z,19.10
2023-02-12T03:34:50.960Z,18.55
2023-02-12T03:36:32.440Z,17.30
2023-02-12T03:38:23.313Z,16.38
2023-02-12T03:40:19.307Z,24.80
2023-02-12T03:42:07.401Z,21.98
2023-02-12T03:44:02.853Z,32.30
2023-02-12T03:45:49.804Z,28.35
2023-02-12T03:47:32.287Z,20.38
2023-02-12T03:49:46.877Z,18.55
2023-02-12T03:51:40.321Z,13.63
2023-02-12T03:53:12.688Z,11.70
2023-02-12T03:54:44.797Z,13.90
2023-02-12T03:56:20.841Z,14.13
2023-02-12T03:57:59.891Z,12.60
2023-02-12T03:59:32.043Z,13.27
2023-02-12T04:01:04.349Z,12.07
2023-02-12T04:02:37.000Z,12.13
2023-02-12T04:04:10.327Z,12.07
2023-02-12T04:05:42.340Z,11.13
2023-02-12T04:07:14.843Z,9.48
2023-02-12T04:08:46.881Z,9.80
2023-02-12T04:10:22.409Z,9.80
2023-02-12T04:12:16.311Z,9.63
2023-02-12T04:14:19.185Z,9.38
2023-02-12T04:16:04.497Z,8.70
2023-02-12T04:17:47.940Z,14.15
2023-02-12T04:19:33.895Z,12.98
2023-02-12T04:21:08.928Z,18.88
2023-02-12T04:23:05.344Z,18.80
2023-02-12T04:24:45.439Z,15.23
2023-02-12T04:26:29.350Z,13.80
2023-02-12T04:28:12.090Z,12.48
2023-02-12T04:30:00.919Z,13.88
2023-02-12T04:31:59.574Z,13.52
2023-02-12T04:33:38.713Z,14.52
2023-02-12T04:35:16.630Z,16.48
2023-02-12T04:37:18.438Z,14.98
2023-02-12T04:39:02.733Z,15.15
2023-02-12T04:40:35.370Z,13.98
2023-02-12T04:42:07.951Z,15.07
2023-02-12T04:43:40.162Z,14.87
2023-02-12T04:45:13.784Z,14.57
2023-02-12T04:48:17.686Z,18.50
2023-02-12T04:49:49.744Z,19.17
2023-02-12T04:51:21.840Z,17.67
2023-02-12T04:52:53.922Z,20.15
2023-02-12T04:54:26.015Z,32.58
2023-02-12T04:55:58.370Z,32.03
2023-02-12T04:57:30.636Z,37.20
2023-02-12T04:59:02.728Z,40.75
2023-02-12T05:00:36.166Z,42.22
2023-02-12T05:02:08.486Z,40.28
2023-02-12T05:03:40.694Z,44.80
2023-02-12T05:05:12.748Z,36.75
2023-02-12T05:06:45.766Z,40.13
2023-02-12T05:08:17.746Z,41.08
2023-02-12T05:09:49.735Z,39.05
2023-02-12T05:11:21.780Z,54.03
2023-02-12T05:12:54.909Z,58.50
2023-02-12T05:14:26.945Z,35.00
2023-02-12T05:15:59.172Z,30.65
2023-02-12T05:17:31.419Z,30.92
2023-02-12T05:19:03.521Z,35.30
2023-02-12T05:20:35.579Z,67.72
2023-02-12T05:22:07.655Z,62.08
2023-02-12T05:23:40.491Z,56.50
2023-02-12T05:25:12.525Z,50.97
2023-02-12T05:26:44.727Z,46.63
2023-02-12T05:28:16.849Z,34.85
2023-02-12T05:29:48.944Z,30.73
2023-02-12T05:31:21.879Z,41.72
2023-02-12T05:32:54.097Z,45.90
2023-02-12T05:34:26.108Z,36.45
2023-02-12T05:36:07.391Z,25.20
2023-02-12T05:37:39.561Z,22.20
2023-02-12T05:39:11.852Z,16.85
2023-02-12T05:40:44.022Z,14.85
2023-02-12T05:42:16.054Z,17.17
2023-02-12T05:43:49.828Z,20.48
2023-02-12T05:45:22.108Z,19.13
2023-02-12T05:46:54.216Z,15.48
2023-02-12T05:48:26.723Z,14.57
2023-02-12T05:49:58.814Z,16.23
2023-02-12T05:51:32.502Z,12.00
2023-02-12T05:53:04.679Z,11.75
2023-02-12T05:54:36.830Z,10.38
2023-02-12T05:56:25.287Z,10.93
2023-02-12T05:57:57.376Z,13.00
2023-02-12T05:59:29.492Z,14.20
2023-02-12T06:01:01.576Z,17.77
2023-02-12T06:02:36.288Z,15.15
2023-02-12T06:04:14.560Z,12.63
2023-02-12T06:05:51.466Z,13.00
2023-02-12T06:07:23.759Z,12.77
2023-02-12T06:08:56.392Z,11.80
2023-02-12T06:10:28.602Z,11.73
2023-02-12T06:12:00.734Z,17.83
2023-02-12T06:13:33.552Z,21.42
2023-02-12T06:15:05.885Z,24.55
2023-02-12T06:16:38.118Z,27.48
2023-02-12T06:18:10.250Z,33.17
2023-02-12T06:19:42.444Z,26.80
2023-02-12T06:21:14.776Z,41.15
2023-02-12T06:22:46.866Z,49.00
2023-02-12T06:24:19.293Z,39.15
2023-02-12T06:25:52.145Z,46.05
2023-02-12T06:27:24.212Z,50.67
2023-02-12T06:28:56.360Z,56.20
2023-02-12T06:30:28.394Z,46.10
2023-02-12T06:32:00.493Z,42.97
2023-02-12T06:33:33.308Z,38.25
2023-02-12T06:35:05.946Z,40.28
2023-02-12T06:36:39.497Z,41.27
2023-02-12T06:39:43.411Z,32.90
2023-02-12T06:41:15.892Z,35.42
2023-02-12T06:42:50.152Z,38.50
2023-02-12T06:44:22.533Z,41.30
2023-02-12T06:45:54.888Z,41.15
2023-02-12T06:47:28.113Z,42.75
2023-02-12T06:49:01.635Z,45.08
2023-02-12T06:52:05.809Z,48.30
2023-02-12T06:53:38.411Z,48.97
2023-02-12T06:55:10.467Z,35.10
2023-02-12T06:56:42.870Z,37.63
2023-02-12T06:58:15.005Z,40.10
2023-02-12T06:59:47.291Z,32.42
2023-02-12T07:01:22.131Z,29.83
2023-02-12T07:02:59.919Z,29.67
2023-02-12T07:04:32.127Z,25.40
2023-02-12T07:06:04.565Z,22.70
2023-02-12T07:07:36.944Z,22.17
2023-02-12T07:09:09.212Z,22.05
2023-02-12T07:10:41.277Z,23.50
2023-02-12T07:12:13.400Z,21.85
2023-02-12T07:13:45.918Z,19.75
2023-02-12T07:15:18.144Z,17.60
2023-02-12T07:16:50.265Z,17.77
2023-02-12T07:18:22.437Z,21.80
2023-02-12T07:19:54.424Z,21.90
2023-02-12T07:21:26.513Z,22.13
2023-02-12T07:22:58.548Z,24.58
2023-02-12T07:24:30.950Z,27.73
2023-02-12T07:26:11.676Z,29.40
2023-02-12T07:27:43.823Z,29.55
2023-02-12T07:29:16.508Z,29.35
2023-02-12T07:30:48.516Z,42.33
2023-02-12T07:32:20.816Z,40.17
2023-02-12T07:33:57.782Z,38.30
2023-02-12T07:35:29.850Z,40.92
2023-02-12T07:37:01.901Z,40.92
2023-02-12T07:38:36.445Z,44.95
2023-02-12T07:40:09.353Z,42.25
2023-02-12T07:41:41.424Z,44.10
2023-02-12T07:43:13.590Z,43.85
2023-02-12T07:44:46.059Z,40.78
2023-02-12T07:46:21.103Z,48.97
2023-02-12T07:47:53.386Z,56.35
2023-02-12T07:49:25.506Z,79.93
2023-02-12T07:51:00.585Z,75.95
2023-02-12T07:52:32.643Z,67.65
2023-02-12T07:54:04.995Z,61.80
2023-02-12T07:55:37.048Z,57.55
2023-02-12T07:57:09.032Z,53.10
2023-02-12T07:58:42.334Z,52.20
2023-02-12T08:00:15.207Z,52.30
2023-02-12T08:01:52.283Z,46.47
2023-02-12T08:03:24.363Z,45.70
2023-02-12T08:04:57.738Z,45.95
2023-02-12T08:06:32.938Z,49.85
2023-02-12T08:08:05.114Z,47.92
2023-02-12T08:09:39.698Z,48.08
2023-02-12T08:11:13.407Z,47.42
2023-02-12T08:12:45.587Z,49.83
2023-02-12T08:14:19.726Z,47.58
2023-02-12T08:16:00.546Z,68.05
2023-02-12T08:17:32.767Z,67.18
2023-02-12T08:19:16.948Z,76.35
2023-02-12T08:20:51.168Z,71.80
2023-02-12T08:22:23.274Z,57.00
2023-02-12T08:23:56.941Z,59.67
2023-02-12T08:25:29.046Z,51.15
2023-02-12T08:27:01.115Z,50.13
2023-02-12T08:28:33.399Z,38.65
2023-02-12T08:30:05.788Z,36.78
2023-02-12T08:31:43.186Z,36.40
2023-02-12T08:33:15.356Z,37.35
2023-02-12T08:34:47.524Z,28.73
2023-02-12T08:36:24.164Z,22.52
2023-02-12T08:37:56.303Z,33.38
2023-02-12T08:39:30.039Z,54.35
2023-02-12T08:41:04.016Z,54.45
2023-02-12T08:42:36.235Z,27.58
2023-02-12T08:44:08.864Z,19.13
2023-02-12T08:45:41.158Z,15.77
2023-02-12T08:47:13.277Z,14.05
2023-02-12T08:48:46.018Z,17.60
2023-02-12T08:50:18.325Z,17.33
2023-02-12T08:51:52.642Z,16.60
2023-02-12T08:53:25.160Z,17.15
2023-02-12T08:54:57.377Z,18.15
2023-02-12T08:56:31.378Z,18.80
2023-02-12T08:58:04.143Z,26.10
2023-02-12T08:59:36.324Z,19.50
2023-02-12T09:01:14.031Z,19.75
2023-02-12T09:02:49.012Z,15.73
2023-02-12T09:04:27.126Z,16.63
2023-02-12T09:05:59.285Z,16.17
2023-02-12T09:07:32.491Z,20.13
2023-02-12T09:09:04.602Z,15.95
2023-02-12T09:10:41.159Z,15.20
2023-02-12T09:12:13.284Z,15.02
2023-02-12T09:13:46.931Z,16.45
2023-02-12T09:16:53.316Z,20.33
2023-02-12T09:18:25.524Z,16.08
2023-02-12T09:19:57.937Z,16.33
2023-02-12T09:21:30.395Z,16.17
2023-02-12T09:24:41.322Z,17.75
2023-02-12T09:26:15.779Z,15.07
2023-02-12T09:27:47.882Z,18.15
2023-02-12T09:29:19.968Z,16.70
2023-02-12T09:30:52.205Z,17.55
2023-02-12T09:32:24.368Z,17.55
2023-02-12T09:34:00.268Z,16.83
2023-02-12T09:35:35.437Z,16.30
2023-02-12T09:37:07.594Z,17.30
2023-02-12T09:38:40.055Z,15.40
2023-02-12T09:40:45.399Z,16.52
2023-02-12T09:42:56.018Z,19.85
2023-02-12T09:44:37.252Z,17.33
2023-02-12T09:46:19.809Z,17.08
2023-02-12T09:47:54.845Z,16.80
2023-02-12T09:49:33.098Z,18.63
2023-02-12T09:51:08.133Z,17.55
2023-02-12T09:54:22.569Z,20.08
2023-02-12T09:55:55.433Z,23.40
2023-02-12T09:57:38.114Z,17.75
2023-02-12T09:59:10.295Z,15.68
2023-02-12T10:00:42.403Z,20.20
2023-02-12T10:02:19.233Z,20.25
2023-02-12T10:03:52.475Z,23.48
2023-02-12T10:05:39.324Z,19.17
2023-02-12T10:07:32.187Z,17.35
2023-02-12T10:09:25.968Z,17.80
2023-02-12T10:11:04.655Z,18.60
2023-02-12T10:13:05.849Z,18.35
2023-02-12T10:14:44.861Z,16.60
2023-02-12T10:16:45.704Z,17.60
2023-02-12T10:18:33.310Z,16.83
2023-02-12T10:20:17.305Z,17.90
2023-02-12T10:23:25.234Z,17.65
2023-02-12T10:25:17.395Z,18.20
2023-02-12T10:26:56.752Z,17.15
2023-02-12T10:28:43.565Z,17.73
2023-02-12T10:30:25.371Z,18.85
2023-02-12T10:32:12.235Z,18.05
2023-02-12T10:33:50.111Z,19.80
2023-02-12T10:35:23.633Z,18.50
2023-02-12T10:37:02.892Z,18.40
2023-02-12T10:38:37.979Z,17.02
2023-02-12T10:40:30.417Z,15.98
2023-02-12T10:42:13.606Z,17.95
2023-02-12T10:43:45.852Z,18.43
2023-02-12T10:45:21.904Z,19.17
2023-02-12T10:46:54.157Z,19.90
2023-02-12T10:48:39.563Z,18.67
2023-02-12T10:50:21.373Z,17.80
2023-02-12T10:51:53.335Z,18.77
2023-02-12T10:53:30.503Z,23.30
2023-02-12T10:55:02.658Z,22.77
2023-02-12T10:56:37.511Z,20.50
2023-02-12T10:58:20.900Z,23.45
2023-02-12T10:59:54.922Z,21.80
2023-02-12T11:01:28.880Z,23.45
2023-02-12T11:03:05.805Z,23.98
2023-02-12T11:04:38.111Z,17.67
2023-02-12T11:06:16.782Z,20.35
2023-02-12T11:07:50.695Z,20.73
2023-02-12T11:09:29.838Z,19.45
2023-02-12T11:11:08.984Z,20.85
2023-02-12T11:12:48.438Z,21.17
2023-02-12T11:14:22.125Z,20.20
2023-02-12T11:15:55.238Z,21.80
2023-02-12T11:17:34.526Z,17.90
2023-02-12T11:19:08.528Z,19.48
2023-02-12T11:22:26.114Z,20.98
2023-02-12T11:23:58.539Z,22.98
2023-02-12T11:25:36.248Z,20.30
2023-02-12T11:27:17.213Z,20.25
2023-02-12T11:28:57.571Z,18.45
2023-02-12T11:30:30.290Z,18.80
2023-02-12T11:32:05.693Z,18.67
2023-02-12T11:33:39.338Z,17.92
2023-02-12T11:35:15.874Z,21.23
2023-02-12T11:36:50.812Z,18.88
2023-02-12T11:38:32.195Z,20.00
2023-02-12T11:40:05.167Z,18.52
2023-02-12T11:41:39.717Z,19.63
2023-02-12T11:43:17.696Z,19.67
2023-02-12T11:44:59.926Z,20.25
2023-02-12T11:46:32.124Z,19.23
2023-02-12T11:48:21.697Z,20.23
2023-02-12T11:52:00.877Z,18.73
2023-02-12T11:53:35.549Z,19.70
2023-02-12T11:55:21.741Z,18.95
2023-02-12T11:56:55.765Z,21.15
2023-02-12T11:58:28.747Z,18.95
2023-02-12T12:00:05.372Z,19.52
2023-02-12T12:01:38.951Z,18.42
2023-02-12T12:04:55.653Z,18.02
2023-02-12T12:06:50.390Z,19.73
2023-02-12T12:08:27.572Z,19.20
2023-02-12T12:10:06.837Z,20.17
2023-02-12T12:12:03.536Z,18.70
2023-02-12T12:13:43.953Z,18.95
2023-02-12T12:15:48.766Z,21.15
2023-02-12T12:17:43.281Z,19.58
2023-02-12T12:22:10.743Z,18.65
2023-02-12T12:23:46.881Z,17.70
2023-02-12T12:25:44.515Z,18.88
2023-02-12T12:28:08.597Z,19.35
2023-02-12T12:29:51.869Z,18.70
2023-02-12T12:31:46.818Z,18.75
2023-02-12T12:33:42.159Z,18.88
2023-02-12T12:35:16.421Z,18.70
2023-02-12T12:37:16.209Z,31.38
2023-02-12T12:38:48.181Z,20.08
2023-02-12T12:40:34.067Z,21.63
2023-02-12T12:42:17.877Z,23.00
2023-02-12T12:44:05.165Z,21.08
2023-02-12T12:45:52.219Z,19.67
2023-02-12T12:48:02.260Z,21.42
2023-02-12T12:49:55.300Z,18.70
2023-02-12T12:51:49.276Z,19.33
2023-02-12T12:54:02.141Z,21.33
2023-02-12T12:56:03.938Z,18.73
2023-02-12T12:57:58.261Z,18.42
2023-02-12T12:59:43.794Z,19.80
2023-02-12T13:01:34.126Z,19.27
2023-02-12T13:03:32.210Z,20.23
2023-02-12T13:05:41.833Z,18.65
2023-02-12T13:07:43.501Z,17.60
2023-02-12T13:09:55.108Z,19.02
2023-02-12T13:11:46.088Z,18.38
2023-02-12T13:13:36.113Z,18.92
2023-02-12T13:15:29.562Z,18.15
2023-02-12T13:17:10.314Z,17.55
2023-02-12T13:18:47.985Z,18.98
2023-02-12T13:20:56.618Z,22.98
2023-02-12T13:22:36.591Z,24.25
2023-02-12T13:26:08.777Z,33.00
2023-02-12T13:27:42.807Z,33.55
2023-02-12T13:29:43.733Z,24.55
2023-02-12T13:31:32.503Z,35.78
2023-02-12T13:33:08.576Z,38.13
2023-02-12T13:34:42.310Z,23.95
2023-02-12T13:36:15.653Z,25.17
2023-02-12T13:37:50.743Z,23.50
2023-02-12T13:39:36.532Z,20.23
2023-02-12T13:41:10.495Z,21.30
2023-02-12T13:43:07.948Z,17.52
2023-02-12T13:45:27.977Z,20.10
2023-02-12T13:47:39.686Z,22.17
2023-02-12T13:49:22.036Z,22.75
2023-02-12T13:51:05.641Z,19.65
2023-02-12T13:52:45.225Z,27.80
2023-02-12T13:54:30.139Z,26.85
2023-02-12T13:56:06.306Z,21.45
2023-02-12T13:57:38.378Z,20.55
2023-02-12T13:59:35.212Z,27.45
2023-02-12T14:01:42.279Z,26.40
2023-02-12T14:03:15.190Z,27.27
2023-02-12T14:04:56.940Z,26.30
2023-02-12T14:06:35.327Z,23.45
2023-02-12T14:08:08.402Z,23.98
2023-02-12T14:09:42.657Z,19.98
2023-02-12T14:11:17.836Z,19.17
2023-02-12T14:12:50.460Z,21.08
2023-02-12T14:14:29.279Z,19.20
2023-02-12T14:16:20.577Z,19.27
2023-02-12T14:17:55.407Z,18.90
2023-02-12T14:19:40.868Z,20.50
2023-02-12T14:21:12.983Z,20.02
2023-02-12T14:22:45.030Z,20.15
2023-02-12T14:24:39.022Z,21.05
2023-02-12T14:26:14.628Z,21.63
2023-02-12T14:27:49.919Z,20.83
2023-02-12T14:29:22.789Z,19.40
2023-02-12T14:31:20.093Z,21.70
2023-02-12T14:59:25.875Z,19.67
2023-02-12T15:01:00.268Z,21.35
2023-02-12T15:02:35.542Z,21.70
2023-02-12T15:04:20.697Z,22.08
2023-02-12T15:06:03.642Z,21.58
2023-02-12T15:07:45.418Z,22.80
2023-02-12T15:09:22.569Z,22.92
2023-02-12T15:11:01.877Z,21.67
2023-02-12T15:12:39.975Z,22.75
2023-02-12T15:14:46.477Z,22.27
2023-02-12T15:16:24.901Z,22.38
2023-02-12T15:18:20.747Z,21.90
2023-02-12T15:19:57.692Z,22.63
2023-02-12T15:21:32.053Z,23.85
2023-02-12T15:23:34.377Z,23.48
2023-02-12T15:25:25.834Z,23.50
2023-02-12T15:27:01.406Z,22.67
2023-02-12T15:28:37.908Z,23.45
2023-02-12T15:30:26.229Z,23.45
2023-02-12T15:32:01.254Z,24.00
2023-02-12T15:33:35.212Z,23.17
2023-02-12T15:35:07.794Z,25.13
2023-02-12T15:36:40.262Z,23.30
2023-02-12T15:38:23.588Z,24.92
2023-02-12T15:39:59.566Z,24.02
2023-02-12T15:41:34.529Z,24.70
2023-02-12T15:43:07.525Z,23.83
2023-02-12T15:44:39.732Z,23.17
2023-02-12T15:46:17.547Z,24.70
2023-02-12T15:48:00.913Z,24.58
2023-02-12T15:49:38.381Z,24.13
2023-02-12T15:51:25.510Z,24.98
2023-02-12T15:52:57.699Z,25.30
2023-02-12T15:54:33.344Z,23.27
2023-02-12T15:56:05.665Z,22.75
2023-02-12T15:57:37.876Z,24.38
2023-02-12T15:59:20.726Z,24.38
2023-02-12T16:00:54.129Z,25.80
2023-02-12T16:02:29.533Z,26.88
2023-02-12T16:04:07.743Z,29.80
2023-02-12T16:05:42.907Z,36.97
2023-02-12T16:07:15.784Z,47.78
2023-02-12T16:08:50.622Z,58.35
2023-02-12T16:10:23.214Z,59.45
2023-02-12T16:11:57.680Z,64.47
2023-02-12T16:13:33.137Z,56.53
2023-02-12T16:15:05.760Z,59.65
2023-02-12T16:16:46.378Z,59.72
2023-02-12T16:18:28.159Z,56.30
2023-02-12T16:20:03.318Z,44.03
2023-02-12T16:21:37.911Z,47.03
2023-02-12T16:23:10.064Z,44.42
2023-02-12T16:24:50.530Z,39.20
2023-02-12T16:26:26.890Z,33.60
2023-02-12T16:28:18.720Z,34.65
2023-02-12T16:29:54.006Z,34.78
2023-02-12T16:31:39.611Z,42.95
2023-02-12T16:33:34.326Z,45.78
2023-02-12T16:36:47.146Z,40.22
2023-02-12T16:38:28.337Z,42.03
2023-02-12T16:40:01.260Z,37.83
2023-02-12T16:41:34.634Z,34.97
2023-02-12T16:43:24.568Z,34.95
2023-02-12T16:44:57.009Z,28.25
2023-02-12T16:46:35.009Z,25.75
2023-02-12T16:48:10.794Z,25.20
2023-02-12T16:49:54.743Z,34.83
2023-02-12T16:51:33.493Z,41.20
2023-02-12T16:53:08.674Z,44.90
2023-02-12T16:54:40.698Z,43.40
2023-02-12T16:56:18.570Z,45.08
2023-02-12T16:57:50.704Z,44.63
2023-02-12T16:59:22.792Z,41.95
2023-02-12T17:00:57.652Z,41.75
2023-02-12T17:02:29.988Z,45.33
2023-02-12T17:04:07.143Z,44.58
2023-02-12T17:05:41.857Z,39.47
2023-02-12T17:08:45.675Z,40.22
2023-02-12T17:10:18.646Z,37.55
2023-02-12T17:11:50.685Z,35.15
2023-02-12T17:13:22.755Z,35.10
2023-02-12T17:14:56.162Z,35.72
2023-02-12T17:16:31.281Z,36.25
2023-02-12T17:18:04.662Z,35.25
2023-02-12T17:19:36.750Z,35.77
2023-02-12T17:21:19.372Z,34.70
2023-02-12T17:22:53.860Z,32.75
2023-02-12T17:24:27.953Z,33.47
2023-02-12T17:26:00.036Z,36.28
2023-02-12T17:27:32.433Z,33.80
2023-02-12T17:29:05.682Z,35.17
2023-02-12T17:30:37.752Z,38.20
2023-02-12T17:32:09.948Z,36.17
2023-02-12T17:33:42.169Z,34.47
2023-02-12T17:35:14.725Z,37.05
2023-02-12T17:36:47.062Z,33.53
2023-02-12T17:38:19.330Z,39.40
2023-02-12T17:39:51.957Z,41.35
2023-02-12T17:41:24.806Z,45.30
2023-02-12T17:42:56.997Z,63.28
2023-02-12T17:44:29.028Z,77.00
2023-02-12T17:46:01.432Z,49.65
2023-02-12T17:47:39.994Z,47.10
2023-02-12T17:49:12.313Z,37.50
2023-02-12T17:50:44.434Z,36.05
2023-02-12T17:52:16.512Z,44.30
2023-02-12T17:53:48.976Z,41.95
2023-02-12T17:55:21.131Z,37.45
2023-02-12T17:56:53.232Z,35.78
2023-02-12T17:58:25.231Z,39.40
2023-02-12T17:59:57.239Z,39.55
2023-02-12T18:01:29.396Z,36.13
2023-02-12T18:03:01.502Z,33.92
2023-02-12T18:04:36.106Z,33.85
2023-02-12T18:06:09.308Z,33.75
2023-02-12T18:07:41.445Z,34.78
2023-02-12T18:09:13.445Z,34.00
2023-02-12T18:12:17.376Z,38.60
2023-02-12T18:13:53.002Z,39.92
2023-02-12T18:15:25.551Z,45.60
2023-02-12T18:16:57.783Z,50.33
2023-02-12T18:18:29.928Z,48.00
2023-02-12T18:20:02.279Z,44.78
2023-02-12T18:21:35.576Z,45.72
2023-02-12T18:23:08.979Z,48.03
2023-02-12T18:24:44.483Z,53.70
2023-02-12T18:26:18.092Z,50.65
2023-02-12T18:29:22.225Z,43.65
2023-02-12T18:30:58.910Z,34.15
2023-02-12T18:32:31.451Z,34.63
2023-02-12T18:34:05.786Z,32.42
2023-02-12T18:35:38.014Z,30.65
2023-02-12T18:37:12.209Z,29.70
2023-02-12T18:38:45.706Z,28.95
2023-02-12T18:40:18.050Z,28.38
2023-02-12T18:41:50.390Z,27.05
2023-02-12T18:43:24.670Z,27.05
2023-02-12T18:44:56.886Z,24.38
2023-02-12T18:46:30.961Z,24.13
2023-02-12T18:48:03.079Z,26.48
2023-02-12T18:49:35.343Z,25.42
2023-02-12T18:51:09.287Z,23.65
2023-02-12T18:52:41.403Z,23.13
2023-02-12T18:54:14.482Z,22.70
2023-02-12T18:55:46.866Z,22.58
2023-02-12T18:57:19.331Z,23.13
2023-02-12T18:58:56.630Z,24.70
2023-02-12T19:00:28.724Z,25.50
2023-02-12T19:02:04.333Z,30.15
2023-02-12T19:03:36.595Z,55.72
2023-02-12T19:05:10.606Z,38.88
2023-02-12T19:06:47.069Z,40.78
2023-02-12T19:08:19.737Z,39.65
2023-02-12T19:11:25.009Z,44.42
2023-02-12T19:12:57.327Z,44.70
2023-02-12T19:14:29.503Z,40.63
2023-02-12T19:16:07.759Z,44.53
2023-02-12T19:17:40.181Z,47.00
2023-02-12T19:19:13.367Z,42.17
2023-02-12T19:20:45.891Z,41.55
2023-02-12T19:22:18.853Z,39.70
2023-02-12T19:23:55.903Z,38.95
2023-02-12T19:25:28.167Z,51.53
2023-02-12T19:27:00.467Z,55.50
2023-02-12T19:28:32.700Z,56.03
2023-02-12T19:30:06.317Z,54.85
2023-02-12T19:33:13.015Z,51.25
2023-02-12T19:34:46.327Z,50.92
2023-02-12T19:36:19.571Z,83.15
2023-02-12T19:37:51.972Z,66.07
2023-02-12T19:39:25.022Z,49.58
2023-02-12T19:41:08.476Z,57.35
2023-02-12T19:42:40.600Z,51.10
2023-02-12T19:44:24.414Z,49.33
2023-02-12T19:46:02.287Z,52.72
2023-02-12T19:47:34.390Z,48.70
2023-02-12T19:49:12.527Z,49.28
2023-02-12T19:50:47.736Z,49.15
2023-02-12T19:52:19.798Z,45.88
2023-02-12T19:53:52.677Z,49.90
2023-02-12T19:55:24.640Z,49.38
2023-02-12T19:56:56.836Z,54.25
2023-02-12T19:58:30.718Z,52.45
2023-02-12T20:00:02.920Z,70.60
2023-02-12T20:01:35.845Z,66.32
2023-02-12T20:03:07.991Z,41.72
2023-02-12T20:04:40.301Z,42.85
2023-02-12T20:06:16.032Z,45.45
2023-02-12T20:07:51.025Z,45.53
2023-02-12T20:09:23.406Z,52.00
2023-02-12T20:10:55.895Z,55.08
2023-02-12T20:12:28.194Z,51.30
2023-02-12T20:15:32.206Z,49.28
2023-02-12T20:17:06.221Z,51.20
2023-02-12T20:18:40.760Z,51.90
2023-02-12T20:20:14.005Z,53.63
2023-02-12T20:21:49.052Z,56.35
2023-02-12T20:23:21.069Z,57.10
2023-02-12T20:24:53.196Z,57.92
2023-02-12T20:26:25.866Z,52.47
2023-02-12T20:27:59.668Z,53.70
2023-02-12T20:29:31.760Z,53.92
2023-02-12T20:31:19.096Z,52.45
2023-02-12T20:32:51.265Z,52.60
2023-02-12T20:34:23.505Z,53.30
2023-02-12T20:35:57.247Z,72.63
2023-02-12T20:37:29.375Z,88.38
2023-02-12T20:39:01.813Z,78.80
2023-02-12T20:40:34.180Z,55.40
2023-02-12T20:42:06.247Z,49.25
2023-02-12T20:43:39.013Z,46.78
2023-02-12T20:45:12.345Z,49.15
2023-02-12T20:46:45.604Z,48.20
2023-02-12T20:48:18.402Z,45.25
2023-02-12T20:49:50.416Z,40.65
2023-02-12T20:51:24.895Z,43.53
2023-02-12T20:52:56.928Z,43.47
2023-02-12T20:54:28.939Z,39.58
2023-02-12T20:56:03.026Z,32.90
2023-02-12T20:57:35.172Z,33.03
2023-02-12T20:59:07.791Z,33.80
2023-02-12T21:00:39.802Z,33.70
2023-02-12T21:02:12.264Z,30.65
2023-02-12T21:03:45.276Z,29.45
2023-02-12T21:05:17.349Z,27.92
2023-02-12T21:06:49.375Z,27.80
2023-02-12T21:08:21.406Z,27.13
2023-02-12T21:09:54.497Z,26.42
2023-02-12T21:11:29.740Z,27.23
2023-02-12T21:14:34.668Z,25.17
2023-02-12T21:16:10.110Z,24.65
2023-02-12T21:17:42.157Z,29.73
2023-02-12T21:19:14.411Z,36.63
2023-02-12T21:20:46.548Z,41.38
2023-02-12T21:22:18.726Z,42.33
2023-02-12T21:23:53.770Z,43.42
2023-02-12T21:25:27.077Z,47.95
2023-02-12T21:26:59.294Z,45.17
2023-02-12T21:28:34.759Z,31.42
2023-02-12T21:30:09.327Z,33.35
2023-02-12T21:31:43.760Z,28.60
2023-02-12T21:33:16.251Z,29.27
2023-02-12T21:34:49.036Z,34.10
2023-02-12T21:36:24.243Z,34.45
2023-02-12T21:37:56.385Z,37.58
2023-02-12T21:39:28.891Z,39.58
2023-02-12T21:41:17.308Z,41.33
2023-02-12T21:42:49.296Z,43.47
2023-02-12T21:44:22.534Z,45.17
2023-02-12T21:45:54.730Z,45.13
2023-02-12T21:47:27.602Z,46.38
2023-02-12T21:48:59.656Z,43.03
2023-02-12T21:50:31.702Z,35.40
2023-02-12T21:52:06.884Z,35.55
2023-02-12T21:53:38.893Z,44.28
2023-02-12T21:55:10.956Z,43.97
2023-02-12T21:56:45.623Z,43.20